createdAt,value
2022-08-14T00:01:10.214Z,59.28
2022-08-14T00:03:40.456Z,59.52
2022-08-14T00:06:14.084Z,59.86
2022-08-14T00:08:55.514Z,59.43
2022-08-14T00:11:25.779Z,59.82
2022-08-14T00:13:58.233Z,59.80
2022-08-14T00:16:41.611Z,59.95
2022-08-14T00:19:19.277Z,60.08
2022-08-14T00:21:47.756Z,60.13
2022-08-14T00:24:22.982Z,60.06
2022-08-14T00:26:55.636Z,60.21
2022-08-14T00:29:22.001Z,60.43
2022-08-14T00:31:56.277Z,60.35
2022-08-14T00:34:36.121Z,60.25
2022-08-14T00:37:05.583Z,60.27
2022-08-14T00:39:32.215Z,60.56
2022-08-14T00:41:58.860Z,60.81
2022-08-14T00:44:27.512Z,60.55
2022-08-14T00:47:00.239Z,60.50
2022-08-14T00:49:28.638Z,60.63
2022-08-14T00:51:56.764Z,60.42
2022-08-14T00:54:24.879Z,59.96
2022-08-14T00:56:55.722Z,60.76
2022-08-14T00:59:24.720Z,60.64
2022-08-14T01:01:53.897Z,60.75
2022-08-14T01:04:51.618Z,61.06
2022-08-14T01:07:09.133Z,61.01
2022-08-14T01:09:39.100Z,60.79
2022-08-14T01:12:07.777Z,61.13
2022-08-14T01:14:34.701Z,61.41
2022-08-14T01:17:02.213Z,61.98
2022-08-14T01:19:48.026Z,61.88
2022-08-14T01:22:18.792Z,60.90
2022-08-14T01:24:46.923Z,61.28
2022-08-14T01:27:18.431Z,61.24
2022-08-14T01:30:03.346Z,62.50
2022-08-14T01:32:37.730Z,61.76
2022-08-14T01:35:17.699Z,61.89
2022-08-14T01:37:57.905Z,62.57
2022-08-14T01:40:36.817Z,62.59
2022-08-14T01:43:14.449Z,62.41
2022-08-14T01:45:41.964Z,62.61
2022-08-14T01:48:13.930Z,62.75
2022-08-14T01:50:41.987Z,62.94
2022-08-14T01:53:09.700Z,62.55
2022-08-14T01:55:38.524Z,62.82
2022-08-14T01:58:19.442Z,63.27
2022-08-14T02:00:55.055Z,62.81
2022-08-14T02:03:30.903Z,63.03
2022-08-14T02:06:32.098Z,63.00
2022-08-14T02:08:52.450Z,63.10
2022-08-14T02:11:23.086Z,63.87
2022-08-14T02:14:07.339Z,63.93
2022-08-14T02:16:43.228Z,64.96
2022-08-14T02:19:14.236Z,65.21
2022-08-14T02:21:48.849Z,64.80
2022-08-14T02:24:39.618Z,65.13
2022-08-14T02:28:25.514Z,64.66
2022-08-14T02:29:56.171Z,65.11
2022-08-14T02:32:30.501Z,65.08
2022-08-14T02:35:11.401Z,65.30
2022-08-14T02:37:48.115Z,65.63
2022-08-14T02:40:16.416Z,65.99
2022-08-14T02:42:54.923Z,66.32
2022-08-14T02:45:33.583Z,65.80
2022-08-14T02:48:10.602Z,65.52
2022-08-14T02:50:54.028Z,65.49
2022-08-14T02:53:20.416Z,65.59
2022-08-14T02:55:46.954Z,65.93
2022-08-14T02:58:21.416Z,65.68
2022-08-14T03:00:57.543Z,65.20
2022-08-14T03:03:24.728Z,65.07
2022-08-14T03:05:54.307Z,65.70
2022-08-14T03:08:22.058Z,65.65
2022-08-14T03:10:50.056Z,66.48
2022-08-14T03:13:19.801Z,66.61
2022-08-14T03:15:55.616Z,66.58
2022-08-14T03:18:30.615Z,66.06
2022-08-14T03:21:05.759Z,66.06
2022-08-14T03:23:38.293Z,66.60
2022-08-14T03:26:08.330Z,66.61
2022-08-14T03:28:34.770Z,66.89
2022-08-14T03:31:04.228Z,67.12
2022-08-14T03:33:40.373Z,67.32
2022-08-14T03:37:37.371Z,66.95
2022-08-14T03:39:13.383Z,67.34
2022-08-14T03:41:46.283Z,67.44
2022-08-14T03:45:26.937Z,67.56
2022-08-14T03:46:59.427Z,67.53
2022-08-14T03:49:30.140Z,67.54
2022-08-14T03:52:00.831Z,67.68
2022-08-14T03:54:28.705Z,67.58
2022-08-14T03:56:55.844Z,68.00
2022-08-14T03:59:22.305Z,67.90
2022-08-14T04:02:01.983Z,67.78
2022-08-14T04:04:30.728Z,67.78
2022-08-14T04:06:59.286Z,67.85
2022-08-14T04:09:26.977Z,67.95
2022-08-14T04:11:53.896Z,67.39
2022-08-14T04:14:20.404Z,66.92
2022-08-14T04:16:47.889Z,68.03
2022-08-14T04:19:18.677Z,67.76
2022-08-14T04:22:02.992Z,67.41
2022-08-14T04:24:37.812Z,67.50
2022-08-14T04:27:05.820Z,66.84
2022-08-14T04:29:32.825Z,67.77
2022-08-14T04:32:57.834Z,67.16
2022-08-14T04:34:51.953Z,67.31
2022-08-14T04:37:45.269Z,67.46
2022-08-14T04:40:31.300Z,67.91
2022-08-14T04:43:17.433Z,68.11
2022-08-14T04:45:45.180Z,67.78
2022-08-14T04:48:39.214Z,68.24
2022-08-14T04:51:01.277Z,68.23
2022-08-14T04:53:35.263Z,69.17
2022-08-14T04:56:03.244Z,68.66
2022-08-14T04:58:34.019Z,68.48
2022-08-14T05:01:02.446Z,68.34
2022-08-14T05:03:31.797Z,68.69
2022-08-14T05:06:01.300Z,68.31
2022-08-14T05:08:32.304Z,67.61
2022-08-14T05:11:15.873Z,68.42
2022-08-14T05:16:31.661Z,68.46
2022-08-14T05:19:17.889Z,68.23
2022-08-14T05:21:59.585Z,68.28
2022-08-14T05:24:28.664Z,68.20
2022-08-14T05:26:56.768Z,67.67
2022-08-14T05:29:23.456Z,67.95
2022-08-14T05:31:50.518Z,67.64
2022-08-14T05:34:23.802Z,67.69
2022-08-14T05:36:58.849Z,67.54
2022-08-14T05:39:29.801Z,64.92
2022-08-14T05:41:56.677Z,60.18
2022-08-14T05:44:29.191Z,56.50
2022-08-14T05:46:56.560Z,54.00
2022-08-14T05:49:23.166Z,52.48
2022-08-14T05:51:52.661Z,51.77
2022-08-14T05:54:26.987Z,50.45
2022-08-14T05:56:54.250Z,49.10
2022-08-14T05:59:21.741Z,48.09
2022-08-14T06:02:03.604Z,47.20
2022-08-14T06:04:32.466Z,46.30
2022-08-14T06:06:59.088Z,46.29
2022-08-14T06:09:25.547Z,47.14
2022-08-14T06:11:52.222Z,48.93
2022-08-14T06:14:24.060Z,48.37
2022-08-14T06:16:52.003Z,48.70
2022-08-14T06:19:20.272Z,49.10
2022-08-14T06:21:53.235Z,47.11
2022-08-14T06:24:24.656Z,46.03
2022-08-14T06:26:56.938Z,45.83
2022-08-14T06:29:33.404Z,49.00
2022-08-14T06:32:36.923Z,51.46
2022-08-14T06:35:04.465Z,52.91
2022-08-14T06:37:41.391Z,53.66
2022-08-14T06:40:25.519Z,54.80
2022-08-14T06:42:54.820Z,55.31
2022-08-14T06:45:21.265Z,54.73
2022-08-14T06:47:53.970Z,55.46
2022-08-14T06:50:28.209Z,55.49
2022-08-14T06:52:55.660Z,55.57
2022-08-14T06:55:25.927Z,56.35
2022-08-14T06:57:54.965Z,55.34
2022-08-14T07:00:27.097Z,55.76
2022-08-14T07:03:12.618Z,56.05
2022-08-14T07:05:55.417Z,55.19
2022-08-14T07:08:28.774Z,55.17
2022-08-14T07:11:03.861Z,55.31
2022-08-14T07:13:31.039Z,55.17
2022-08-14T07:16:00.354Z,55.31
2022-08-14T07:18:30.495Z,55.46
2022-08-14T07:20:58.567Z,55.03
2022-08-14T07:23:25.921Z,55.50
2022-08-14T07:25:54.660Z,54.75
2022-08-14T07:28:34.738Z,54.33
2022-08-14T07:31:05.845Z,54.70
2022-08-14T07:33:42.039Z,53.60
2022-08-14T07:36:27.036Z,52.91
2022-08-14T07:38:58.220Z,52.64
2022-08-14T07:41:24.599Z,52.12
2022-08-14T07:43:57.896Z,51.64
2022-08-14T07:46:28.478Z,51.77
2022-08-14T07:48:56.832Z,50.74
2022-08-14T07:51:23.993Z,50.81
2022-08-14T07:53:56.820Z,50.37
2022-08-14T07:56:44.173Z,50.34
2022-08-14T07:59:11.077Z,49.47
2022-08-14T08:01:39.335Z,48.66
2022-08-14T08:04:16.780Z,48.67
2022-08-14T08:06:51.023Z,47.61
2022-08-14T08:09:20.727Z,48.25
2022-08-14T08:11:54.480Z,48.48
2022-08-14T08:14:24.860Z,47.17
2022-08-14T08:16:54.122Z,45.96
2022-08-14T08:19:20.725Z,46.45
2022-08-14T08:21:47.824Z,46.65
2022-08-14T08:24:20.004Z,46.03
2022-08-14T08:26:50.490Z,46.07
2022-08-14T08:29:28.895Z,45.50
2022-08-14T08:32:01.851Z,45.45
2022-08-14T08:34:31.692Z,45.15
2022-08-14T08:36:58.476Z,45.13
2022-08-14T08:39:24.891Z,44.30
2022-08-14T08:41:57.244Z,44.13
2022-08-14T08:44:32.846Z,43.58
2022-08-14T08:47:05.311Z,44.12
2022-08-14T08:49:52.725Z,42.35
2022-08-14T08:52:31.795Z,41.34
2022-08-14T08:54:59.535Z,41.92
2022-08-14T08:57:27.267Z,42.17
2022-08-14T08:59:54.694Z,41.31
2022-08-14T09:02:22.594Z,41.28
2022-08-14T09:05:02.039Z,40.26
2022-08-14T09:07:28.442Z,39.59
2022-08-14T09:09:59.379Z,39.51
2022-08-14T09:12:31.771Z,39.74
2022-08-14T09:15:00.868Z,38.11
2022-08-14T09:17:27.885Z,39.61
2022-08-14T09:19:54.256Z,39.30
2022-08-14T09:22:33.740Z,37.74
2022-08-14T09:25:08.466Z,37.33
2022-08-14T09:27:37.975Z,37.42
2022-08-14T09:30:12.682Z,36.08
2022-08-14T09:33:09.367Z,36.82
2022-08-14T09:36:20.006Z,37.22
2022-08-14T09:39:23.240Z,36.21
2022-08-14T09:42:21.275Z,35.20
2022-08-14T09:45:19.255Z,37.49
2022-08-14T09:47:51.836Z,36.06
2022-08-14T09:50:26.094Z,36.98
2022-08-14T09:53:04.041Z,35.62
2022-08-14T09:55:41.725Z,33.80
2022-08-14T09:58:20.080Z,35.33
2022-08-14T10:01:01.541Z,34.69
2022-08-14T10:03:34.414Z,34.58
2022-08-14T10:06:08.751Z,34.54
2022-08-14T10:08:50.743Z,33.30
2022-08-14T10:11:19.355Z,32.35
2022-08-14T10:13:55.801Z,32.79
2022-08-14T10:16:27.170Z,33.44
2022-08-14T10:19:07.652Z,31.49
2022-08-14T10:21:38.811Z,32.74
2022-08-14T10:24:36.341Z,31.01
2022-08-14T10:27:03.605Z,31.26
2022-08-14T10:29:38.624Z,31.53
2022-08-14T10:32:18.319Z,31.33
2022-08-14T10:35:04.768Z,31.56
2022-08-14T10:37:38.867Z,29.88
2022-08-14T10:40:36.759Z,30.20
2022-08-14T10:42:54.439Z,30.67
2022-08-14T10:45:30.296Z,29.68
2022-08-14T10:48:07.857Z,29.09
2022-08-14T10:50:41.316Z,29.60
2022-08-14T10:53:08.960Z,28.56
2022-08-14T10:55:45.149Z,29.66
2022-08-14T10:58:12.719Z,27.40
2022-08-14T11:00:55.509Z,28.20
2022-08-14T11:03:26.648Z,27.23
2022-08-14T11:06:19.790Z,27.47
2022-08-14T11:08:48.538Z,27.86
2022-08-14T11:11:18.414Z,27.42
2022-08-14T11:13:46.380Z,26.74
2022-08-14T11:16:15.926Z,27.51
2022-08-14T11:18:50.906Z,26.62
2022-08-14T11:21:22.918Z,25.06
2022-08-14T11:23:53.429Z,27.09
2022-08-14T11:26:22.608Z,25.81
2022-08-14T11:28:50.988Z,24.47
2022-08-14T11:31:25.733Z,23.20
2022-08-14T11:33:55.606Z,24.49
2022-08-14T11:36:23.973Z,23.10
2022-08-14T11:39:01.847Z,23.83
2022-08-14T11:41:28.275Z,24.61
2022-08-14T11:43:56.269Z,25.10
2022-08-14T11:46:29.695Z,24.75
2022-08-14T11:49:02.969Z,24.34
2022-08-14T11:51:36.354Z,24.83
2022-08-14T11:54:19.475Z,23.82
2022-08-14T11:56:49.757Z,24.23
2022-08-14T11:59:19.609Z,23.70
2022-08-14T12:01:52.833Z,24.76
2022-08-14T12:04:21.540Z,21.90
2022-08-14T12:07:00.711Z,22.70
2022-08-14T12:09:33.213Z,22.50
2022-08-14T12:12:01.393Z,23.18
2022-08-14T12:14:30.298Z,22.45
2022-08-14T12:17:09.503Z,22.84
2022-08-14T12:19:46.161Z,22.67
2022-08-14T12:22:29.541Z,22.76
2022-08-14T12:24:56.834Z,22.11
2022-08-14T12:27:25.207Z,22.02
2022-08-14T12:29:53.873Z,22.10
2022-08-14T12:32:20.254Z,22.74
2022-08-14T12:34:53.307Z,23.51
2022-08-14T12:37:29.963Z,23.51
2022-08-14T12:39:57.189Z,22.63
2022-08-14T12:42:36.476Z,23.00
2022-08-14T12:45:08.337Z,22.96
2022-08-14T12:47:34.887Z,20.72
2022-08-14T12:50:02.346Z,22.49
2022-08-14T12:53:01.910Z,21.97
2022-08-14T12:56:17.982Z,21.33
2022-08-14T12:58:34.957Z,22.54
2022-08-14T13:01:20.569Z,23.54
2022-08-14T13:03:48.237Z,21.55
2022-08-14T13:06:19.155Z,21.22
2022-08-14T13:08:53.057Z,20.99
2022-08-14T13:11:24.098Z,20.96
2022-08-14T13:13:58.408Z,23.59
2022-08-14T13:16:38.183Z,23.54
2022-08-14T13:19:10.981Z,24.22
2022-08-14T13:22:05.703Z,25.54
2022-08-14T13:24:27.954Z,24.50
2022-08-14T13:26:56.916Z,24.80
2022-08-14T13:29:29.673Z,25.82
2022-08-14T13:31:58.243Z,25.17
2022-08-14T13:34:27.011Z,26.86
2022-08-14T13:37:03.636Z,25.64
2022-08-14T13:39:36.474Z,25.69
2022-08-14T13:42:13.355Z,25.01
2022-08-14T13:44:42.973Z,26.04
2022-08-14T13:47:10.578Z,25.87
2022-08-14T13:49:57.155Z,25.12
2022-08-14T13:52:52.941Z,25.08
2022-08-14T13:55:13.532Z,26.01
2022-08-14T13:57:49.469Z,27.49
2022-08-14T14:00:21.863Z,27.16
2022-08-14T14:03:00.166Z,26.40
2022-08-14T14:05:52.772Z,27.00
2022-08-14T14:08:18.745Z,26.00
2022-08-14T14:10:45.735Z,25.37
2022-08-14T14:13:20.013Z,23.67
2022-08-14T14:15:58.300Z,22.56
2022-08-14T14:18:33.863Z,23.35
2022-08-14T14:21:02.744Z,24.60
2022-08-14T14:23:30.229Z,24.93
2022-08-14T14:25:57.599Z,24.39
2022-08-14T14:28:31.344Z,23.08
2022-08-14T14:31:01.228Z,22.89
2022-08-14T14:33:50.740Z,24.14
2022-08-14T14:36:25.901Z,22.65
2022-08-14T14:38:58.059Z,23.71
2022-08-14T14:41:38.265Z,23.91
2022-08-14T14:44:13.377Z,23.31
2022-08-14T14:46:43.313Z,25.11
2022-08-14T14:49:14.105Z,23.66
2022-08-14T14:51:45.061Z,24.79
2022-08-14T14:54:17.797Z,24.09
2022-08-14T14:56:50.878Z,24.79
2022-08-14T14:59:20.720Z,23.81
2022-08-14T15:01:49.828Z,24.72
2022-08-14T15:04:20.591Z,23.01
2022-08-14T15:06:48.279Z,26.05
2022-08-14T15:09:17.611Z,24.28
2022-08-14T15:11:45.869Z,24.55
2022-08-14T15:14:56.462Z,22.42
2022-08-14T15:17:01.793Z,22.88
2022-08-14T15:19:28.247Z,22.93
2022-08-14T15:21:55.289Z,23.44
2022-08-14T15:24:26.589Z,25.86
2022-08-14T15:26:53.847Z,25.38
2022-08-14T15:29:20.383Z,23.24
2022-08-14T15:31:46.753Z,23.38
2022-08-14T15:34:44.088Z,24.83
2022-08-14T15:37:05.123Z,23.64
2022-08-14T15:39:35.359Z,25.75
2022-08-14T15:42:15.006Z,25.78
2022-08-14T15:44:58.525Z,23.66
2022-08-14T15:47:30.790Z,29.24
2022-08-14T15:50:00.549Z,26.61
2022-08-14T15:52:33.166Z,24.19
2022-08-14T15:55:09.702Z,28.14
2022-08-14T15:57:39.409Z,26.47
2022-08-14T16:00:49.688Z,25.35
2022-08-14T16:03:18.444Z,24.16
2022-08-14T16:05:55.694Z,24.59
2022-08-14T16:08:27.308Z,26.00
2022-08-14T16:10:58.535Z,24.00
2022-08-14T16:13:41.742Z,24.45
2022-08-14T16:16:34.689Z,26.83
2022-08-14T16:18:59.553Z,25.52
2022-08-14T16:21:31.517Z,25.39
2022-08-14T16:24:00.442Z,26.01
2022-08-14T16:26:29.121Z,27.68
2022-08-14T16:29:02.329Z,27.56
2022-08-14T16:31:36.030Z,26.53
2022-08-14T16:34:46.274Z,25.83
2022-08-14T16:36:53.723Z,26.99
2022-08-14T16:39:22.379Z,26.00
2022-08-14T16:41:52.416Z,28.50
2022-08-14T16:44:31.693Z,25.78
2022-08-14T16:47:04.208Z,26.35
2022-08-14T16:50:02.749Z,26.87
2022-08-14T16:52:25.839Z,26.59
2022-08-14T16:55:06.823Z,26.71
2022-08-14T16:57:34.323Z,26.14
2022-08-14T17:00:07.258Z,28.01
2022-08-14T17:02:46.335Z,28.04
2022-08-14T17:05:24.658Z,29.07
2022-08-14T17:08:33.108Z,30.42
2022-08-14T17:11:10.618Z,31.90
2022-08-14T17:13:59.066Z,30.86
2022-08-14T17:16:33.028Z,31.79
2022-08-14T17:19:03.903Z,32.85
2022-08-14T17:21:38.141Z,33.19
2022-08-14T17:24:57.128Z,34.01
2022-08-14T17:26:58.451Z,34.56
2022-08-14T17:29:31.069Z,33.20
2022-08-14T17:32:01.839Z,32.24
2022-08-14T17:34:44.378Z,33.29
2022-08-14T17:37:37.504Z,35.93
2022-08-14T17:40:15.910Z,36.45
2022-08-14T17:42:51.020Z,34.92
2022-08-14T17:45:38.954Z,34.94
2022-08-14T17:49:10.545Z,35.56
2022-08-14T17:51:14.115Z,36.22
2022-08-14T17:53:53.294Z,36.42
2022-08-14T17:56:20.609Z,37.17
2022-08-14T17:58:49.222Z,38.21
2022-08-14T18:01:17.047Z,38.66
2022-08-14T18:03:53.608Z,38.75
2022-08-14T18:06:38.697Z,39.87
2022-08-14T18:09:25.090Z,39.26
2022-08-14T18:11:58.165Z,39.40
2022-08-14T18:14:32.375Z,39.66
2022-08-14T18:17:13.512Z,39.58
2022-08-14T18:19:44.543Z,40.49
2022-08-14T18:22:31.340Z,40.76
2022-08-14T18:24:58.462Z,41.40
2022-08-14T18:27:38.861Z,41.95
2022-08-14T18:30:33.130Z,42.44
2022-08-14T18:32:59.059Z,42.97
2022-08-14T18:35:59.122Z,42.87
2022-08-14T18:38:45.724Z,43.01
2022-08-14T18:41:36.836Z,43.17
2022-08-14T18:44:05.108Z,43.83
2022-08-14T18:47:08.442Z,43.17
2022-08-14T18:49:57.647Z,43.33
2022-08-14T18:52:33.374Z,43.55
2022-08-14T18:55:20.609Z,43.69
2022-08-14T18:58:24.497Z,44.39
2022-08-14T19:00:54.954Z,44.75
2022-08-14T19:03:33.666Z,45.56
2022-08-14T19:06:03.129Z,47.07
2022-08-14T19:08:41.454Z,46.31
2022-08-14T19:11:39.514Z,46.13
2022-08-14T19:14:07.492Z,46.48
2022-08-14T19:16:36.852Z,46.51
2022-08-14T19:19:06.768Z,47.02
2022-08-14T19:21:35.673Z,47.10
2022-08-14T19:24:27.156Z,47.59
2022-08-14T19:27:16.660Z,47.50
2022-08-14T19:29:47.785Z,48.25
2022-08-14T19:32:38.875Z,48.03
2022-08-14T19:35:16.679Z,48.75
2022-08-14T19:37:54.869Z,48.97
2022-08-14T19:40:34.703Z,48.85
2022-08-14T19:43:06.365Z,49.72
2022-08-14T19:45:33.628Z,49.83
2022-08-14T19:48:00.675Z,50.30
2022-08-14T19:50:40.619Z,50.32
2022-08-14T19:53:17.087Z,50.36
2022-08-14T19:55:56.656Z,50.34
2022-08-14T19:58:30.127Z,50.87
2022-08-14T20:01:01.298Z,51.05
2022-08-14T20:03:59.838Z,51.16
2022-08-14T20:06:37.006Z,51.19
2022-08-14T20:11:05.559Z,51.59
2022-08-14T20:12:04.950Z,51.68
2022-08-14T20:14:36.958Z,51.81
2022-08-14T20:17:06.726Z,51.80
2022-08-14T20:19:37.591Z,52.63
2022-08-14T20:22:35.431Z,53.14
2022-08-14T20:24:55.035Z,53.40
2022-08-14T20:27:33.436Z,54.00
2022-08-14T20:30:29.745Z,53.98
2022-08-14T20:33:04.454Z,54.49
2022-08-14T20:35:41.884Z,54.90
2022-08-14T20:38:33.428Z,55.22
2022-08-14T20:41:08.613Z,55.23
2022-08-14T20:43:59.829Z,55.80
2022-08-14T20:46:31.539Z,55.82
2022-08-14T20:49:01.153Z,55.85
2022-08-14T20:51:38.789Z,56.11
2022-08-14T20:54:11.618Z,56.04
2022-08-14T20:56:40.497Z,56.61
2022-08-14T20:59:17.622Z,56.29
2022-08-14T21:02:28.396Z,56.19
2022-08-14T21:05:00.481Z,56.56
2022-08-14T21:07:35.350Z,56.72
2022-08-14T21:10:33.548Z,56.98
2022-08-14T21:13:26.552Z,57.43
2022-08-14T21:15:57.568Z,57.47
2022-08-14T21:18:28.694Z,58.40
2022-08-14T21:20:56.172Z,58.69
2022-08-14T21:23:23.114Z,58.82
2022-08-14T21:25:49.579Z,58.99
2022-08-14T21:28:29.841Z,58.87
2022-08-14T21:30:57.552Z,58.45
2022-08-14T21:33:24.448Z,58.20
2022-08-14T21:35:54.826Z,58.61
2022-08-14T21:38:22.123Z,58.51
2022-08-14T21:41:41.244Z,58.85
2022-08-14T21:44:03.662Z,59.35
2022-08-14T21:46:30.397Z,59.69
2022-08-14T21:48:58.557Z,59.83
2022-08-14T21:51:56.056Z,60.07
2022-08-14T21:54:30.320Z,60.07
2022-08-14T21:57:00.255Z,60.53
2022-08-14T21:59:32.251Z,60.74
2022-08-14T22:02:03.429Z,60.69
2022-08-14T22:04:40.605Z,60.68
2022-08-14T22:07:10.567Z,60.85
2022-08-14T22:09:38.909Z,61.24
2022-08-14T22:12:11.041Z,61.25
2022-08-14T22:14:57.490Z,61.06
2022-08-14T22:17:24.094Z,61.03
2022-08-14T22:19:54.741Z,60.17
2022-08-14T22:22:24.056Z,60.65
2022-08-14T22:25:00.034Z,60.81
2022-08-14T22:27:28.441Z,60.68
2022-08-14T22:29:58.625Z,61.22
2022-08-14T22:32:34.969Z,61.19
2022-08-14T22:35:03.128Z,61.41
2022-08-14T22:37:29.470Z,61.29
2022-08-14T22:40:48.396Z,61.66
2022-08-14T22:42:42.373Z,61.08
2022-08-14T22:45:36.717Z,61.31
2022-08-14T22:48:09.699Z,61.79
2022-08-14T22:50:48.721Z,62.10
2022-08-14T22:53:20.289Z,62.30
2022-08-14T22:55:46.865Z,62.72
2022-08-14T22:58:17.212Z,62.50
2022-08-14T23:00:45.704Z,62.29
2022-08-14T23:03:17.363Z,62.53
2022-08-14T23:05:52.778Z,62.47
2022-08-14T23:08:57.087Z,62.69
2022-08-14T23:11:07.015Z,62.68
2022-08-14T23:13:33.492Z,63.00
2022-08-14T23:16:00.197Z,62.89
2022-08-14T23:18:29.873Z,63.06
2022-08-14T23:20:57.075Z,63.19
2022-08-14T23:23:24.261Z,63.29
2022-08-14T23:25:58.746Z,63.62
2022-08-14T23:28:34.615Z,63.78
2022-08-14T23:31:34.675Z,64.24
2022-08-14T23:34:06.952Z,64.52
2022-08-14T23:36:37.197Z,64.53
2022-08-14T23:39:10.612Z,64.03
2022-08-14T23:41:53.160Z,64.43
2022-08-14T23:44:23.549Z,63.91
2022-08-14T23:46:52.815Z,64.00
2022-08-14T23:49:25.027Z,63.76
2022-08-14T23:52:49.286Z,63.52
2022-08-14T23:54:49.255Z,63.67
2022-08-14T23:57:19.322Z,63.64
2022-08-14T23:59:54.189Z,63.85
